Time;durP1;ratioP1;P1;durP2;ratioP2;P2;SDS_P1;SDS_P2;PMS_P1;PMS_P2;Temp;Humidity;BMP_temperature;BMP_pressure;BME280_temperature;BME280_humidity;BME280_pressure;Samples;Min_cycle;Max_cycle;Signal;HPM_P1;HPM_P2
2021/09/05 00:00:26;;;;;;;6.53;4.37;;;14.20;99.90;;;;;;5053998;28;20441;-66
2021/09/05 00:02:52;;;;;;;6.33;5.73;;;14.20;99.90;;;;;;5053995;28;20770;-66
2021/09/05 00:05:18;;;;;;;5.20;4.70;;;14.20;99.90;;;;;;5053918;28;20508;-66
2021/09/05 00:07:43;;;;;;;7.10;5.10;;;14.10;99.90;;;;;;5052862;28;20453;-65
2021/09/05 00:10:10;;;;;;;8.17;6.03;;;14.10;99.90;;;;;;5052666;28;20192;-66
2021/09/05 00:12:36;;;;;;;5.20;4.70;;;14.10;99.90;;;;;;5052674;28;20673;-66
2021/09/05 00:15:04;;;;;;;5.27;4.80;;;14.10;99.90;;;;;;5053581;28;20524;-66
2021/09/05 00:17:30;;;;;;;6.67;4.80;;;14.10;99.90;;;;;;5053303;28;20506;-66
2021/09/05 00:19:56;;;;;;;6.30;4.93;;;14.10;99.90;;;;;;5053813;28;20504;-66
2021/09/05 00:22:21;;;;;;;6.07;4.90;;;14.00;99.90;;;;;;5049812;28;20177;-66
2021/09/05 00:24:47;;;;;;;5.97;5.07;;;13.90;99.90;;;;;;5033788;28;20223;-66
2021/09/05 00:27:13;;;;;;;6.27;4.80;;;13.90;99.90;;;;;;5033769;28;20189;-67
2021/09/05 00:29:38;;;;;;;6.73;6.00;;;13.90;99.90;;;;;;5033570;28;20224;-67
2021/09/05 00:32:04;;;;;;;6.93;5.30;;;13.90;99.90;;;;;;5033416;28;20275;-66
2021/09/05 00:34:30;;;;;;;6.60;5.57;;;13.90;99.90;;;;;;5033625;28;20750;-66
2021/09/05 00:36:55;;;;;;;7.17;5.43;;;13.90;99.90;;;;;;5034273;28;20391;-67
2021/09/05 00:39:21;;;;;;;6.53;5.03;;;13.80;99.90;;;;;;5053272;28;20188;-67
2021/09/05 00:41:47;;;;;;;6.33;5.73;;;13.80;99.90;;;;;;5053342;28;20192;-67
2021/09/05 00:44:13;;;;;;;5.30;4.53;;;13.80;99.90;;;;;;5053271;28;20654;-65
2021/09/05 00:46:40;;;;;;;7.17;5.83;;;13.80;99.90;;;;;;5052931;28;20411;-66
2021/09/05 00:49:07;;;;;;;6.83;5.50;;;13.70;99.90;;;;;;5053049;28;20472;-66
2021/09/05 00:51:38;;;;;;;5.80;5.27;;;13.80;99.90;;;;;;5051877;28;20463;-66
2021/09/05 00:54:05;;;;;;;7.33;6.63;;;13.70;99.90;;;;;;5032054;28;20479;-66
2021/09/05 00:56:36;;;;;;;9.60;6.70;;;13.70;99.90;;;;;;5033177;28;20412;-67
2021/09/05 00:59:08;;;;;;;6.20;5.17;;;13.60;99.90;;;;;;5031917;28;20970;-66
2021/09/05 01:01:36;;;;;;;5.63;5.10;;;13.60;99.90;;;;;;5033542;28;20399;-65
2021/09/05 01:04:02;;;;;;;5.60;4.60;;;13.50;99.90;;;;;;5033038;28;20414;-66
2021/09/05 01:06:28;;;;;;;6.03;5.53;;;13.50;99.90;;;;;;5035302;28;20431;-66
2021/09/05 01:08:56;;;;;;;6.47;5.87;;;13.50;99.90;;;;;;5052671;28;20522;-65
2021/09/05 01:11:23;;;;;;;6.60;5.50;;;13.50;99.90;;;;;;5052862;28;20431;-65
2021/09/05 01:13:49;;;;;;;6.47;5.80;;;13.50;99.90;;;;;;5051638;28;20795;-67
2021/09/05 01:16:25;;;;;;;8.83;6.10;;;13.50;99.90;;;;;;5052960;28;20494;-65
2021/09/05 01:18:54;;;;;;;5.40;4.90;;;13.50;99.90;;;;;;5052572;28;20418;-65
2021/09/05 01:21:22;;;;;;;8.07;4.70;;;13.40;99.90;;;;;;5048394;28;20482;-67
2021/09/05 01:23:48;;;;;;;5.83;5.33;;;13.40;99.90;;;;;;5033659;28;20435;-66
2021/09/05 01:26:21;;;;;;;7.13;5.30;;;13.40;99.90;;;;;;5033185;28;20414;-67
2021/09/05 01:28:46;;;;;;;5.47;4.40;;;13.30;99.90;;;;;;5032529;28;20681;-67
2021/09/05 01:31:13;;;;;;;5.43;4.93;;;13.30;99.90;;;;;;5032766;28;20406;-67
2021/09/05 01:33:38;;;;;;;6.20;5.60;;;13.30;99.90;;;;;;5031567;28;20728;-67
2021/09/05 01:36:04;;;;;;;6.33;5.10;;;13.20;99.90;;;;;;5035537;28;20422;-67
2021/09/05 01:38:37;;;;;;;6.00;5.10;;;13.20;99.90;;;;;;5050404;28;20196;-67
2021/09/05 01:41:05;;;;;;;6.33;5.10;;;13.20;99.90;;;;;;5052825;28;20405;-65
2021/09/05 01:43:31;;;;;;;5.87;5.27;;;13.10;99.90;;;;;;5050743;28;20890;-67
2021/09/05 01:45:57;;;;;;;6.00;4.63;;;13.10;99.90;;;;;;5052748;28;20465;-65
2021/09/05 01:48:26;;;;;;;5.30;4.83;;;13.10;99.90;;;;;;5053476;28;20198;-66
2021/09/05 01:51:13;;;;;;;7.30;5.27;;;13.10;99.90;;;;;;5056389;28;20171;-66
2021/09/05 01:53:39;;;;;;;4.97;4.50;;;13.10;99.90;;;;;;5040752;28;20638;-67
2021/09/05 01:56:04;;;;;;;8.30;5.10;;;13.10;99.90;;;;;;5036454;28;20430;-66
2021/09/05 01:58:32;;;;;;;6.50;5.87;;;13.10;99.90;;;;;;5035774;28;20200;-67
2021/09/05 02:01:02;;;;;;;6.87;5.27;;;13.00;99.90;;;;;;5053487;28;20283;-66
2021/09/05 02:03:28;;;;;;;5.90;5.30;;;13.00;99.90;;;;;;5056068;28;20403;-66
2021/09/05 02:05:54;;;;;;;6.27;5.67;;;13.00;99.90;;;;;;5056083;28;20170;-66
2021/09/05 02:08:23;;;;;;;7.23;5.43;;;13.00;99.90;;;;;;5055429;28;20163;-65
2021/09/05 02:10:51;;;;;;;7.20;5.77;;;13.00;99.90;;;;;;5048252;28;20414;-66
2021/09/05 02:13:22;;;;;;;5.80;5.20;;;12.90;99.90;;;;;;5034809;28;20481;-65
2021/09/05 02:15:49;;;;;;;4.25;3.85;;;12.90;99.90;;;;;;5035800;28;20415;-66
2021/09/05 02:18:15;;;;;;;6.47;5.83;;;12.90;99.90;;;;;;5034116;28;20270;-66
2021/09/05 02:20:43;;;;;;;6.27;5.60;;;12.80;99.90;;;;;;5035816;28;20489;-66
2021/09/05 02:23:09;;;;;;;6.97;5.03;;;12.90;99.90;;;;;;5034594;28;20805;-65
2021/09/05 02:25:35;;;;;;;7.57;5.50;;;12.80;99.90;;;;;;5043148;28;20395;-67
2021/09/05 02:28:18;;;;;;;6.23;5.43;;;12.80;99.90;;;;;;5055336;28;20176;-65
2021/09/05 02:30:44;;;;;;;5.33;4.90;;;12.80;99.90;;;;;;5056145;28;20207;-66
2021/09/05 02:33:09;;;;;;;6.00;5.37;;;12.80;99.90;;;;;;5055590;28;20445;-65
2021/09/05 02:35:40;;;;;;;5.90;5.37;;;12.80;99.90;;;;;;5055175;28;20296;-66
2021/09/05 02:38:06;;;;;;;7.17;4.50;;;12.80;99.90;;;;;;5054890;28;20237;-66
2021/09/05 02:40:34;;;;;;;5.53;4.93;;;12.70;99.90;;;;;;5055312;28;20410;-66
2021/09/05 02:43:04;;;;;;;5.80;5.13;;;12.70;99.90;;;;;;5052504;28;20176;-66
2021/09/05 02:45:35;;;;;;;8.20;5.57;;;12.70;99.90;;;;;;5033885;28;20426;-66
2021/09/05 02:48:00;;;;;;;6.53;5.50;;;12.60;99.90;;;;;;5035154;28;20798;-66
2021/09/05 02:50:28;;;;;;;6.17;4.70;;;12.60;99.90;;;;;;5035717;28;20285;-65
2021/09/05 02:52:54;;;;;;;6.57;5.00;;;12.60;99.90;;;;;;5035453;28;20196;-66
2021/09/05 02:55:20;;;;;;;5.47;4.97;;;12.60;99.90;;;;;;5034999;28;20217;-66
2021/09/05 02:57:45;;;;;;;8.30;6.27;;;12.60;99.90;;;;;;5037106;28;20550;-65
2021/09/05 03:00:11;;;;;;;7.53;5.67;;;12.60;99.90;;;;;;5054154;28;20191;-66
2021/09/05 03:02:47;;;;;;;6.67;5.80;;;12.60;99.90;;;;;;5055036;28;20199;-66
2021/09/05 03:05:13;;;;;;;8.13;5.80;;;12.50;99.90;;;;;;5054946;28;20405;-66
2021/09/05 03:07:39;;;;;;;7.40;5.40;;;12.60;99.90;;;;;;5054442;28;20811;-66
2021/09/05 03:10:05;;;;;;;7.57;5.20;;;12.50;99.90;;;;;;5054753;28;20199;-66
2021/09/05 03:12:31;;;;;;;6.07;5.47;;;12.60;99.90;;;;;;5051786;28;20184;-67
2021/09/05 03:14:57;;;;;;;8.23;4.30;;;12.50;99.90;;;;;;5049260;28;20535;-65
2021/09/05 03:17:22;;;;;;;7.87;5.73;;;12.50;99.90;;;;;;5054651;28;20535;-65
2021/09/05 03:19:48;;;;;;;6.70;4.90;;;12.50;99.90;;;;;;5054606;28;20198;-66
2021/09/05 03:22:14;;;;;;;7.10;5.10;;;12.50;99.90;;;;;;5054804;28;20624;-66
2021/09/05 03:24:39;;;;;;;7.07;5.93;;;12.50;99.90;;;;;;5054806;28;20178;-66
2021/09/05 03:27:05;;;;;;;8.20;6.00;;;12.50;99.90;;;;;;5052811;28;20285;-65
2021/09/05 03:29:30;;;;;;;5.80;5.00;;;12.50;99.90;;;;;;5034693;28;20192;-66
2021/09/05 03:31:58;;;;;;;8.40;5.93;;;12.50;99.90;;;;;;5034443;28;20649;-66
2021/09/05 03:34:24;;;;;;;7.03;4.97;;;12.40;99.90;;;;;;5034769;28;20203;-66
2021/09/05 03:36:50;;;;;;;5.67;4.90;;;12.40;99.90;;;;;;5034636;28;20183;-66
2021/09/05 03:39:15;;;;;;;6.60;5.20;;;12.40;99.90;;;;;;5035030;28;20195;-66
2021/09/05 03:41:50;;;;;;;8.23;6.23;;;12.40;99.90;;;;;;5034599;28;20163;-66
2021/09/05 03:44:16;;;;;;;6.68;4.88;;;12.30;99.90;;;;;;5037047;28;20183;-65
2021/09/05 03:46:47;;;;;;;6.53;4.90;;;12.30;99.90;;;;;;5034573;28;20515;-67
2021/09/05 03:49:15;;;;;;;6.00;5.40;;;12.30;99.90;;;;;;5034182;28;20605;-66
2021/09/05 03:51:41;;;;;;;6.18;5.57;;;12.30;99.90;;;;;;5034796;28;20178;-66
2021/09/05 03:54:06;;;;;;;5.30;4.80;;;12.30;99.90;;;;;;5034205;28;20549;-66
2021/09/05 03:56:35;;;;;;;7.80;5.70;;;12.30;99.90;;;;;;5034609;28;20252;-66
2021/09/05 03:59:03;;;;;;;6.80;6.10;;;12.30;99.90;;;;;;5054081;28;20274;-66
2021/09/05 04:01:35;;;;;;;5.70;5.00;;;12.30;99.90;;;;;;5054353;28;20416;-66
2021/09/05 04:04:03;;;;;;;7.55;5.47;;;12.20;99.90;;;;;;5054019;28;20428;-66
2021/09/05 04:06:34;;;;;;;9.38;6.35;;;12.20;99.90;;;;;;5054510;28;20327;-73
2021/09/05 04:09:10;;;;;;;6.80;5.72;;;12.20;99.90;;;;;;5053774;28;20198;-66
2021/09/05 04:11:39;;;;;;;6.85;4.93;;;12.30;99.90;;;;;;5050218;28;20179;-66
2021/09/05 04:14:11;;;;;;;6.93;5.72;;;12.20;99.90;;;;;;5034081;28;20273;-66
2021/09/05 04:16:36;;;;;;;5.22;4.47;;;12.20;99.90;;;;;;5033943;28;20632;-66
2021/09/05 04:19:02;;;;;;;5.63;4.97;;;12.20;99.90;;;;;;5033989;28;20200;-66
2021/09/05 04:21:27;;;;;;;5.40;4.87;;;12.20;99.90;;;;;;5033790;28;20177;-66
2021/09/05 04:23:58;;;;;;;6.07;5.53;;;12.20;99.90;;;;;;5034011;28;20209;-66
2021/09/05 04:26:24;;;;;;;5.50;5.00;;;12.10;99.90;;;;;;5036813;28;20268;-66
2021/09/05 04:28:54;;;;;;;6.60;6.00;;;12.10;99.90;;;;;;5053355;28;20244;-67
2021/09/05 04:31:23;;;;;;;5.32;4.40;;;12.10;99.90;;;;;;5053495;28;20190;-66
2021/09/05 04:33:48;;;;;;;6.32;5.78;;;12.10;99.90;;;;;;5053415;28;20227;-66
2021/09/05 04:36:14;;;;;;;7.80;4.63;;;12.10;99.90;;;;;;5053513;28;20567;-66
2021/09/05 04:38:40;;;;;;;5.90;4.47;;;12.00;99.90;;;;;;5051947;28;20185;-67
2021/09/05 04:41:11;;;;;;;5.93;4.07;;;12.10;99.90;;;;;;5050104;28;20246;-67
2021/09/05 04:43:39;;;;;;;6.60;5.38;;;12.00;99.90;;;;;;5033517;28;20166;-66
2021/09/05 04:46:07;;;;;;;9.63;5.25;;;12.00;99.90;;;;;;5033621;28;20262;-66
2021/09/05 04:48:35;;;;;;;4.78;4.38;;;12.00;99.90;;;;;;5033349;28;20190;-66
2021/09/05 04:51:01;;;;;;;8.45;5.95;;;12.00;99.90;;;;;;5033624;28;20171;-66
2021/09/05 04:53:27;;;;;;;7.03;5.30;;;12.00;99.90;;;;;;5033417;28;20173;-67
2021/09/05 04:55:52;;;;;;;6.27;5.70;;;11.90;99.90;;;;;;5033731;28;20166;-67
2021/09/05 04:58:31;;;;;;;5.97;5.37;;;12.00;99.90;;;;;;5032684;28;20563;-66
2021/09/05 05:00:57;;;;;;;9.25;6.57;;;12.00;99.90;;;;;;5033472;28;20173;-66
2021/09/05 05:03:22;;;;;;;8.07;5.80;;;12.10;99.90;;;;;;5033253;28;20655;-67
2021/09/05 05:05:48;;;;;;;6.90;5.83;;;12.20;99.90;;;;;;5033134;28;20648;-66
2021/09/05 05:08:14;;;;;;;6.47;5.82;;;12.20;99.90;;;;;;5032782;28;20636;-66
2021/09/05 05:10:40;;;;;;;8.47;5.73;;;12.30;99.90;;;;;;5036067;28;20238;-67
2021/09/05 05:13:06;;;;;;;7.17;6.03;;;12.40;99.90;;;;;;5051772;28;20178;-67
2021/09/05 05:15:31;;;;;;;7.10;5.23;;;12.40;99.90;;;;;;5052956;28;20977;-67
2021/09/05 05:17:57;;;;;;;6.07;4.80;;;12.50;99.90;;;;;;5052595;28;20572;-67
2021/09/05 05:20:23;;;;;;;6.50;5.27;;;12.50;99.90;;;;;;5051697;28;20199;-67
2021/09/05 05:22:48;;;;;;;7.00;5.60;;;12.60;99.90;;;;;;5053225;28;20417;-66
2021/09/05 05:25:14;;;;;;;5.30;4.80;;;12.70;99.90;;;;;;5054918;28;20175;-67
2021/09/05 05:27:40;;;;;;;6.17;5.20;;;12.70;99.90;;;;;;5036784;28;20619;-66
2021/09/05 05:30:07;;;;;;;6.37;5.50;;;12.70;99.90;;;;;;5037046;28;20628;-66
2021/09/05 05:32:33;;;;;;;5.73;5.10;;;12.80;99.90;;;;;;5036757;28;20188;-66
2021/09/05 05:34:59;;;;;;;7.17;5.90;;;12.80;99.90;;;;;;5036983;28;20843;-66
2021/09/05 05:37:25;;;;;;;6.20;5.00;;;12.90;99.90;;;;;;5036491;28;20172;-67
2021/09/05 05:39:50;;;;;;;6.33;5.63;;;13.00;99.90;;;;;;5036868;28;20461;-66
2021/09/05 05:42:16;;;;;;;7.70;5.57;;;13.00;99.90;;;;;;5056653;28;20411;-66
2021/09/05 05:44:42;;;;;;;7.50;4.70;;;13.10;99.90;;;;;;5056991;28;20323;-65
2021/09/05 05:47:07;;;;;;;8.23;6.40;;;13.10;99.90;;;;;;5055826;28;20173;-66
2021/09/05 05:49:35;;;;;;;7.83;5.80;;;13.20;99.90;;;;;;5055941;28;20265;-66
2021/09/05 05:52:01;;;;;;;6.70;5.60;;;13.30;99.90;;;;;;5056524;28;20172;-65
2021/09/05 05:54:27;;;;;;;6.80;6.17;;;13.30;99.90;;;;;;5056146;28;20464;-65
2021/09/05 05:56:52;;;;;;;5.20;4.70;;;13.40;99.90;;;;;;5036527;28;20422;-65
2021/09/05 05:59:18;;;;;;;14.77;10.80;;;13.70;99.90;;;;;;5035021;28;20640;-66
2021/09/05 06:01:44;;;;;;;7.07;6.37;;;13.90;99.90;;;;;;5036291;28;20239;-67
2021/09/05 06:04:10;;;;;;;6.57;5.97;;;14.20;99.90;;;;;;5036743;28;20185;-67
2021/09/05 06:06:38;;;;;;;5.17;4.67;;;14.30;99.90;;;;;;5041279;28;20420;-67
2021/09/05 06:09:04;;;;;;;5.57;4.97;;;14.50;99.90;;;;;;5056117;28;20445;-67
2021/09/05 06:11:29;;;;;;;4.80;4.40;;;14.60;99.90;;;;;;5055667;28;20956;-66
2021/09/05 06:13:55;;;;;;;5.10;4.53;;;14.70;99.90;;;;;;5047287;28;20786;-65
2021/09/05 06:16:21;;;;;;;6.67;5.10;;;14.80;99.90;;;;;;5036155;28;20621;-66
2021/09/05 06:18:48;;;;;;;4.10;3.70;;;14.80;99.90;;;;;;5035407;28;20186;-67
2021/09/05 06:21:14;;;;;;;6.97;5.97;;;14.90;99.90;;;;;;5036122;28;21002;-65
2021/09/05 06:23:40;;;;;;;5.07;4.67;;;14.90;99.90;;;;;;5035808;28;20409;-66
2021/09/05 06:26:06;;;;;;;4.50;3.93;;;15.00;99.90;;;;;;5034718;28;20174;-66
2021/09/05 06:28:31;;;;;;;12.83;5.20;;;15.10;99.90;;;;;;5039577;28;20807;-65
2021/09/05 06:30:57;;;;;;;11.53;4.80;;;15.10;99.90;;;;;;5052975;28;20293;-65
2021/09/05 06:33:23;;;;;;;6.50;4.47;;;15.20;99.90;;;;;;5040673;28;20260;-66
2021/09/05 06:35:48;;;;;;;5.53;4.90;;;15.40;99.90;;;;;;5054180;28;20205;-65
2021/09/05 06:38:14;;;;;;;6.07;4.73;;;15.50;99.90;;;;;;5055055;28;20260;-64
2021/09/05 06:40:40;;;;;;;5.57;4.93;;;15.60;99.90;;;;;;5052328;28;20544;-65
2021/09/05 06:43:06;;;;;;;5.40;4.73;;;15.60;99.90;;;;;;5049599;28;20419;-64
2021/09/05 06:45:31;;;;;;;5.13;4.70;;;15.70;99.90;;;;;;5055557;28;20253;-66
2021/09/05 06:47:58;;;;;;;4.90;4.07;;;15.90;99.90;;;;;;5035540;28;20190;-67
2021/09/05 06:50:24;;;;;;;4.70;4.27;;;16.10;99.90;;;;;;5049567;28;20194;-65
2021/09/05 06:52:50;;;;;;;7.67;4.80;;;16.30;99.90;;;;;;5053914;28;20476;-64
2021/09/05 06:55:15;;;;;;;8.37;4.73;;;16.50;99.90;;;;;;5054955;28;20546;-67
2021/09/05 06:57:41;;;;;;;5.03;3.80;;;16.80;99.90;;;;;;5054841;28;20181;-67
2021/09/05 07:00:07;;;;;;;4.90;3.77;;;17.00;99.90;;;;;;5054457;28;20196;-64
2021/09/05 07:02:33;;;;;;;4.00;3.70;;;17.30;99.90;;;;;;5034786;28;20454;-65
2021/09/05 07:04:59;;;;;;;4.80;4.30;;;17.50;99.90;;;;;;5050589;28;20445;-66
2021/09/05 07:07:24;;;;;;;5.30;4.20;;;17.80;99.90;;;;;;5034766;28;20227;-66
2021/09/05 07:09:53;;;;;;;3.60;3.33;;;18.00;99.90;;;;;;5035063;28;20899;-69
2021/09/05 07:12:19;;;;;;;4.27;3.97;;;18.50;99.90;;;;;;5050159;28;20616;-66
2021/09/05 07:14:44;;;;;;;4.20;3.30;;;18.80;99.90;;;;;;5055354;28;20487;-70
2021/09/05 07:17:10;;;;;;;4.63;3.60;;;19.00;99.90;;;;;;5054593;28;20339;-65
2021/09/05 07:19:54;;;;;;;3.87;3.57;;;19.00;99.90;;;;;;5054567;28;20720;-69
2021/09/05 07:22:22;;;;;;;3.97;3.43;;;19.00;99.90;;;;;;5055048;28;20181;-68
2021/09/05 07:24:48;;;;;;;4.30;3.90;;;19.20;99.90;;;;;;5054915;28;20415;-69
2021/09/05 07:27:14;;;;;;;4.17;3.77;;;19.30;99.90;;;;;;5054973;28;20412;-68
2021/09/05 07:29:39;;;;;;;4.77;3.67;;;19.30;99.90;;;;;;5051796;28;20212;-69
2021/09/05 07:32:08;;;;;;;4.17;3.77;;;19.50;99.90;;;;;;5046030;28;20236;-64
2021/09/05 07:34:34;;;;;;;4.80;4.20;;;19.40;99.90;;;;;;5054620;28;20203;-63
2021/09/05 07:37:02;;;;;;;5.83;4.23;;;19.40;99.90;;;;;;5054495;28;20420;-67
2021/09/05 07:39:28;;;;;;;4.23;3.93;;;19.50;99.90;;;;;;5054734;28;20991;-64
2021/09/05 07:41:56;;;;;;;4.60;4.10;;;19.50;99.90;;;;;;5054455;28;20400;-66
2021/09/05 07:44:24;;;;;;;5.27;3.80;;;19.60;99.90;;;;;;5054374;28;20701;-66
2021/09/05 07:46:50;;;;;;;5.90;3.90;;;19.70;99.90;;;;;;5053444;28;20421;-66
2021/09/05 07:49:18;;;;;;;4.50;4.10;;;20.00;99.90;;;;;;5053943;28;20435;-67
2021/09/05 07:51:44;;;;;;;4.60;3.90;;;20.40;99.90;;;;;;5054340;28;20181;-71
2021/09/05 07:54:12;;;;;;;4.20;3.90;;;20.90;99.90;;;;;;5054290;28;20789;-69
2021/09/05 07:56:38;;;;;;;4.50;3.80;;;21.70;99.90;;;;;;5049031;28;20380;-67
2021/09/05 07:59:03;;;;;;;3.93;3.60;;;22.70;99.90;;;;;;5036538;28;20949;-71
2021/09/05 08:01:31;;;;;;;5.13;3.93;;;23.90;99.90;;;;;;5048034;28;20253;-66
2021/09/05 08:04:00;;;;;;;4.63;4.03;;;25.10;97.60;;;;;;5053051;28;20178;-65
2021/09/05 08:06:26;;;;;;;4.90;4.40;;;26.40;96.20;;;;;;5052934;28;20398;-67
2021/09/05 08:08:52;;;;;;;4.10;3.70;;;27.70;94.10;;;;;;5033283;28;20816;-67
2021/09/05 08:11:18;;;;;;;5.30;4.80;;;28.80;91.30;;;;;;5044892;28;20408;-67
2021/09/05 08:13:44;;;;;;;5.30;4.83;;;29.80;89.10;;;;;;5053087;28;20393;-67
2021/09/05 08:16:12;;;;;;;5.37;4.80;;;30.70;84.90;;;;;;5050007;28;20173;-67
2021/09/05 08:18:38;;;;;;;5.30;4.90;;;31.60;81.70;;;;;;5050804;28;20247;-66
2021/09/05 08:21:08;;;;;;;5.70;5.20;;;32.50;77.80;;;;;;5051721;28;20982;-66
2021/09/05 08:23:38;;;;;;;4.67;4.27;;;33.10;73.90;;;;;;5051582;28;20409;-67
2021/09/05 08:26:14;;;;;;;5.47;5.07;;;33.60;72.00;;;;;;5051586;28;20427;-66
2021/09/05 08:28:40;;;;;;;4.07;3.77;;;34.10;70.70;;;;;;5049850;28;20463;-66
2021/09/05 08:31:06;;;;;;;5.50;5.00;;;34.10;67.90;;;;;;5053811;28;20367;-66
2021/09/05 08:33:32;;;;;;;5.47;4.97;;;34.20;66.40;;;;;;5053283;28;20193;-64
2021/09/05 08:36:05;;;;;;;6.33;5.63;;;34.10;65.90;;;;;;5053646;28;20195;-65
2021/09/05 08:39:03;;;;;;;4.73;4.37;;;34.10;65.00;;;;;;5090667;28;20554;-67
2021/09/05 08:41:28;;;;;;;4.97;4.67;;;34.10;65.80;;;;;;5090792;28;20394;-67
2021/09/05 08:43:57;;;;;;;5.50;5.10;;;34.30;65.50;;;;;;5090838;28;20172;-67
2021/09/05 08:46:25;;;;;;;4.10;3.80;;;34.50;63.10;;;;;;5090501;28;20172;-66
2021/09/05 08:48:54;;;;;;;4.93;4.53;;;34.80;62.40;;;;;;5089546;28;20442;-68
2021/09/05 08:51:20;;;;;;;8.20;7.40;;;35.30;61.30;;;;;;5090724;28;20809;-66
2021/09/05 08:53:46;;;;;;;4.93;4.57;;;36.00;59.70;;;;;;5090657;28;20442;-66
2021/09/05 08:56:17;;;;;;;3.83;3.63;;;36.50;58.20;;;;;;5089096;28;20406;-67
2021/09/05 08:58:42;;;;;;;4.90;4.33;;;36.80;57.80;;;;;;5090095;28;20698;-67
2021/09/05 09:01:36;;;;;;;4.60;4.30;;;36.90;58.50;;;;;;5090245;28;20437;-66
2021/09/05 09:04:10;;;;;;;4.20;3.90;;;37.00;57.20;;;;;;5090380;28;20230;-67
2021/09/05 09:06:42;;;;;;;3.83;3.60;;;37.10;56.90;;;;;;5089946;28;20448;-67
2021/09/05 09:09:09;;;;;;;5.10;4.60;;;37.50;55.70;;;;;;5090037;28;20431;-65
2021/09/05 09:11:55;;;;;;;5.00;4.70;;;37.80;54.80;;;;;;5090240;28;20434;-67
2021/09/05 09:14:44;;;;;;;4.23;3.97;;;37.70;54.90;;;;;;5088303;28;20430;-65
2021/09/05 09:17:14;;;;;;;4.80;4.40;;;37.80;53.70;;;;;;5081513;28;20504;-67
2021/09/05 09:19:46;;;;;;;3.67;3.47;;;37.70;54.20;;;;;;5070323;28;20423;-67
2021/09/05 09:22:25;;;;;;;4.20;4.00;;;37.80;54.30;;;;;;5069795;28;20932;-66
2021/09/05 09:24:50;;;;;;;4.37;4.07;;;38.10;54.10;;;;;;5069833;28;20403;-66
2021/09/05 09:27:16;;;;;;;5.20;4.80;;;38.20;54.60;;;;;;5069149;28;20408;-68
2021/09/05 09:29:44;;;;;;;4.13;3.83;;;38.40;53.50;;;;;;5068292;28;20208;-67
2021/09/05 09:32:22;;;;;;;4.47;4.13;;;38.50;52.50;;;;;;5077748;28;20573;-67
2021/09/05 09:34:52;;;;;;;4.73;4.43;;;38.80;52.50;;;;;;5089669;28;20419;-67
2021/09/05 09:37:20;;;;;;;4.97;4.57;;;38.50;51.70;;;;;;5089185;28;20461;-67
2021/09/05 09:39:56;;;;;;;4.63;4.30;;;38.30;52.20;;;;;;5089598;28;20776;-65
2021/09/05 09:42:28;;;;;;;4.10;3.90;;;38.00;51.90;;;;;;5089777;28;20884;-66
2021/09/05 09:44:55;;;;;;;4.30;4.00;;;38.00;52.40;;;;;;5089813;28;20757;-66
2021/09/05 09:47:21;;;;;;;4.50;4.20;;;38.30;51.00;;;;;;5075254;28;20424;-65
2021/09/05 09:49:50;;;;;;;3.50;3.30;;;38.40;51.00;;;;;;5057671;28;20424;-66
2021/09/05 09:52:22;;;;;;;3.47;3.27;;;38.40;51.40;;;;;;5055921;28;20169;-67
2021/09/05 09:54:48;;;;;;;4.70;4.40;;;38.50;51.30;;;;;;5055755;28;20826;-65
2021/09/05 09:57:17;;;;;;;4.77;4.47;;;38.40;50.60;;;;;;5055411;28;20787;-67
2021/09/05 09:59:42;;;;;;;4.80;4.40;;;38.40;50.30;;;;;;5055761;28;20276;-66
2021/09/05 10:02:19;;;;;;;5.37;4.93;;;38.60;51.30;;;;;;5054665;28;20491;-67
2021/09/05 10:04:49;;;;;;;4.53;4.27;;;39.00;50.70;;;;;;5062077;28;20169;-66
2021/09/05 10:07:18;;;;;;;4.20;3.90;;;39.40;49.90;;;;;;5075442;28;20482;-67
2021/09/05 10:09:46;;;;;;;5.10;4.60;;;39.00;48.00;;;;;;5075451;28;20437;-65
2021/09/05 10:12:12;;;;;;;3.80;3.50;;;38.00;49.20;;;;;;5075752;28;20418;-67
2021/09/05 10:14:43;;;;;;;4.67;4.37;;;37.30;49.90;;;;;;5075535;28;20407;-66
2021/09/05 10:17:11;;;;;;;4.10;3.80;;;36.50;50.60;;;;;;5074655;28;20447;-66
2021/09/05 10:19:40;;;;;;;4.47;4.13;;;36.00;51.00;;;;;;5066346;28;20450;-66
2021/09/05 10:22:06;;;;;;;4.57;3.87;;;35.20;51.70;;;;;;5055445;28;20785;-66
2021/09/05 10:24:48;;;;;;;3.90;3.60;;;34.80;52.70;;;;;;5055202;28;20408;-66
2021/09/05 10:27:15;;;;;;;4.00;3.70;;;34.80;53.30;;;;;;5055027;28;20813;-67
2021/09/05 10:30:05;;;;;;;4.00;3.70;;;34.80;52.50;;;;;;5055278;28;20493;-66
2021/09/05 10:32:58;;;;;;;5.60;4.80;;;35.80;52.30;;;;;;5055201;28;20428;-66
2021/09/05 10:35:44;;;;;;;6.60;6.20;;;34.70;52.00;;;;;;5065404;28;20416;-66
2021/09/05 10:38:09;;;;;;;3.70;3.40;;;34.70;50.90;;;;;;5074381;28;20461;-71
2021/09/05 10:40:46;;;;;;;33.50;25.73;;;34.30;51.10;;;;;;5075004;28;20399;-71
2021/09/05 10:43:14;;;;;;;90.13;69.63;;;34.10;51.60;;;;;;5074937;28;20512;-70
2021/09/05 10:45:42;;;;;;;8.43;5.43;;;34.30;51.70;;;;;;5074628;28;20486;-78
2021/09/05 10:48:37;;;;;;;3.67;3.40;;;34.60;51.20;;;;;;5073272;28;20411;-72
2021/09/05 10:51:12;;;;;;;3.70;3.40;;;34.80;50.30;;;;;;5054729;28;20913;-72
2021/09/05 10:53:48;;;;;;;5.77;5.27;;;34.80;51.50;;;;;;5054739;28;20389;-74
2021/09/05 10:56:40;;;;;;;3.40;3.10;;;34.60;51.10;;;;;;5053482;28;20399;-73
2021/09/05 10:59:09;;;;;;;3.63;3.33;;;34.50;51.20;;;;;;5054668;28;20406;-71
2021/09/05 11:01:39;;;;;;;71.73;56.73;;;34.40;50.90;;;;;;5053433;28;20483;-68
2021/09/05 11:04:14;;;;;;;6.17;5.67;;;34.50;51.40;;;;;;5061722;28;20426;-69
2021/09/05 11:07:02;;;;;;;5.37;4.87;;;34.20;50.60;;;;;;5073821;28;20410;-72
2021/09/05 11:09:28;;;;;;;15.00;9.40;;;34.10;51.00;;;;;;5074412;28;20510;-69
2021/09/05 11:11:58;;;;;;;3.47;3.17;;;33.50;51.40;;;;;;5074415;28;20414;-69
2021/09/05 11:17:15;;;;;;;3.20;2.90;;;31.70;52.20;;;;;;5073825;28;20451;-68
2021/09/05 11:19:54;;;;;;;2.93;2.73;;;30.90;51.90;;;;;;5056106;28;20531;-70
2021/09/05 11:22:26;;;;;;;3.40;2.80;;;30.00;52.30;;;;;;5054256;28;20928;-74
2021/09/05 11:25:31;;;;;;;2.77;2.57;;;29.30;54.70;;;;;;5054279;28;20512;-71
2021/09/05 11:28:00;;;;;;;3.67;3.37;;;28.70;57.30;;;;;;4992283;28;20429;-71
2021/09/05 11:30:31;;;;;;;3.37;2.80;;;28.00;58.80;;;;;;4992661;28;20392;-73
2021/09/05 11:33:03;;;;;;;3.47;2.50;;;28.00;59.20;;;;;;4992489;28;20405;-76
2021/09/05 11:35:57;;;;;;;3.67;3.27;;;28.20;85.10;;;;;;4992597;28;20422;-74
2021/09/05 11:38:23;;;;;;;3.03;2.53;;;;;;;;;;4992048;28;20467;-67
2021/09/05 11:40:54;;;;;;;3.53;3.13;;;27.10;90.90;;;;;;5011916;28;20447;-70
2021/09/05 11:43:36;;;;;;;3.20;2.57;;;27.10;59.50;;;;;;5011968;28;20414;-71
2021/09/05 11:46:13;;;;;;;3.60;3.30;;;27.10;59.30;;;;;;5011654;28;20410;-68
2021/09/05 11:48:39;;;;;;;3.33;3.03;;;26.90;59.40;;;;;;5008821;28;20448;-67
2021/09/05 11:51:05;;;;;;;3.30;3.00;;;26.80;59.80;;;;;;5012050;28;20920;-69
2021/09/05 11:53:31;;;;;;;3.60;3.10;;;26.70;59.40;;;;;;5004798;28;20191;-70
2021/09/05 11:55:57;;;;;;;2.60;2.40;;;26.70;59.40;;;;;;4992578;28;20381;-70
2021/09/05 11:58:22;;;;;;;2.40;2.27;;;26.60;59.20;;;;;;5016452;28;20328;-68
2021/09/05 12:00:54;;;;;;;2.67;2.47;;;26.50;59.20;;;;;;5073212;28;20407;-70
2021/09/05 12:03:25;;;;;;;4.03;3.47;;;26.40;59.60;;;;;;5073429;28;20180;-70
2021/09/05 12:05:54;;;;;;;3.27;2.87;;;26.30;60.10;;;;;;5063545;28;20489;-69
2021/09/05 12:08:20;;;;;;;2.43;2.23;;;26.30;59.80;;;;;;5061457;28;20931;-70
2021/09/05 12:10:46;;;;;;;3.00;2.60;;;26.20;60.50;;;;;;5062879;28;20418;-68
2021/09/05 12:13:14;;;;;;;3.30;3.00;;;26.20;60.50;;;;;;5060962;28;20477;-68
2021/09/05 12:15:46;;;;;;;3.40;2.70;;;26.20;60.00;;;;;;5061763;28;20485;-71
2021/09/05 12:18:40;;;;;;;2.90;2.37;;;26.30;61.20;;;;;;5062235;28;20500;-71
2021/09/05 12:21:06;;;;;;;2.63;2.43;;;26.30;60.70;;;;;;5053215;28;20427;-71
2021/09/05 12:23:33;;;;;;;2.57;2.37;;;26.30;60.50;;;;;;5062484;28;20418;-70
2021/09/05 12:26:01;;;;;;;2.90;2.70;;;26.30;61.60;;;;;;5061643;28;20174;-70
2021/09/05 12:28:29;;;;;;;2.70;2.50;;;26.30;60.40;;;;;;5060035;28;20444;-69
2021/09/05 12:31:00;;;;;;;3.00;2.73;;;26.30;63.10;;;;;;5060829;28;20466;-72
2021/09/05 12:33:25;;;;;;;3.10;2.80;;;26.30;62.70;;;;;;5060728;28;20889;-67
2021/09/05 12:36:14;;;;;;;2.57;2.37;;;26.30;62.00;;;;;;5055428;28;20554;-71
2021/09/05 12:39:10;;;;;;;4.10;3.27;;;26.40;64.60;;;;;;5066982;28;20220;-71
2021/09/05 12:41:36;;;;;;;2.57;1.93;;;26.40;60.50;;;;;;5059781;28;21035;-72
2021/09/05 12:44:06;;;;;;;2.20;2.00;;;26.50;59.70;;;;;;5072572;28;20446;-72
2021/09/05 12:46:39;;;;;;;2.70;2.50;;;26.50;58.70;;;;;;5072608;28;20180;-70
2021/09/05 12:49:15;;;;;;;2.93;2.63;;;26.50;58.80;;;;;;5072604;28;20509;-69
2021/09/05 12:51:59;;;;;;;3.60;2.53;;;26.60;59.00;;;;;;5071188;28;20403;-68
2021/09/05 12:54:26;;;;;;;2.07;1.97;;;26.70;60.10;;;;;;5057952;28;20521;-67
2021/09/05 12:56:51;;;;;;;2.77;2.53;;;26.80;59.70;;;;;;5052135;28;20401;-71
2021/09/05 12:59:18;;;;;;;2.77;2.57;;;26.90;59.40;;;;;;5071344;28;20405;-69